sensor_id;sensor_type;location;lat;lon;timestamp;pressure;altitude;pressure_sealevel;temperature;humidity
72428;BME280;60419;48.880;18.036;2023-12-28T00:00:18;99605.41;;;6.99;63.69
72428;BME280;60419;48.880;18.036;2023-12-28T00:03:04;99598.97;;;6.90;64.04
72428;BME280;60419;48.880;18.036;2023-12-28T00:05:49;99602.47;;;7.11;63.72
72428;BME280;60419;48.880;18.036;2023-12-28T00:08:34;99588.22;;;7.00;63.69
72428;BME280;60419;48.880;18.036;2023-12-28T00:11:20;99591.44;;;7.07;63.34
72428;BME280;60419;48.880;18.036;2023-12-28T00:14:06;99589.22;;;6.48;65.44
72428;BME280;60419;48.880;18.036;2023-12-28T00:16:51;99580.97;;;6.85;65.03
72428;BME280;60419;48.880;18.036;2023-12-28T00:19:36;99587.69;;;6.98;64.15
72428;BME280;60419;48.880;18.036;2023-12-28T00:22:22;99587.16;;;6.96;64.02
72428;BME280;60419;48.880;18.036;2023-12-28T00:25:08;99598.13;;;6.59;65.68
72428;BME280;60419;48.880;18.036;2023-12-28T00:27:53;99602.69;;;6.68;65.80
72428;BME280;60419;48.880;18.036;2023-12-28T00:30:38;99601.09;;;6.78;65.37
72428;BME280;60419;48.880;18.036;2023-12-28T00:33:24;99595.19;;;6.81;65.86
72428;BME280;60419;48.880;18.036;2023-12-28T00:36:09;99599.75;;;6.70;66.38
72428;BME280;60419;48.880;18.036;2023-12-28T00:38:55;99607.25;;;6.68;67.04
72428;BME280;60419;48.880;18.036;2023-12-28T00:41:40;99613.72;;;6.72;66.63
72428;BME280;60419;48.880;18.036;2023-12-28T00:44:25;99595.44;;;6.74;65.74
72428;BME280;60419;48.880;18.036;2023-12-28T00:47:11;99606.72;;;6.71;66.76
72428;BME280;60419;48.880;18.036;2023-12-28T00:49:56;99612.66;;;6.88;65.54
72428;BME280;60419;48.880;18.036;2023-12-28T00:52:42;99606.72;;;6.76;66.55
72428;BME280;60419;48.880;18.036;2023-12-28T00:55:27;99597.03;;;6.60;67.09
72428;BME280;60419;48.880;18.036;2023-12-28T00:58:13;99603.00;;;6.87;65.94
72428;BME280;60419;48.880;18.036;2023-12-28T01:00:58;99603.25;;;6.81;65.95
72428;BME280;60419;48.880;18.036;2023-12-28T01:03:43;99609.94;;;6.68;67.26
72428;BME280;60419;48.880;18.036;2023-12-28T01:06:29;99607.78;;;6.65;67.20
72428;BME280;60419;48.880;18.036;2023-12-28T01:09:14;99614.47;;;6.47;67.85
72428;BME280;60419;48.880;18.036;2023-12-28T01:12:00;99613.63;;;6.41;68.31
72428;BME280;60419;48.880;18.036;2023-12-28T01:14:45;99610.69;;;6.53;67.13
72428;BME280;60419;48.880;18.036;2023-12-28T01:17:31;99603.66;;;6.27;67.75
72428;BME280;60419;48.880;18.036;2023-12-28T01:20:16;99602.88;;;6.36;67.69
72428;BME280;60419;48.880;18.036;2023-12-28T01:23:02;99597.56;;;5.78;70.22
72428;BME280;60419;48.880;18.036;2023-12-28T01:25:47;99603.38;;;6.23;69.24
72428;BME280;60419;48.880;18.036;2023-12-28T01:28:32;99606.16;;;6.49;68.67
72428;BME280;60419;48.880;18.036;2023-12-28T01:31:18;99602.47;;;7.01;66.34
72428;BME280;60419;48.880;18.036;2023-12-28T01:34:03;99585.53;;;6.85;66.18
72428;BME280;60419;48.880;18.036;2023-12-28T01:36:48;99601.66;;;7.05;66.62
72428;BME280;60419;48.880;18.036;2023-12-28T01:39:34;99587.66;;;6.62;67.53
72428;BME280;60419;48.880;18.036;2023-12-28T01:42:19;99600.03;;;6.84;66.98
72428;BME280;60419;48.880;18.036;2023-12-28T01:45:05;99594.38;;;6.70;67.50
72428;BME280;60419;48.880;18.036;2023-12-28T01:47:52;99585.22;;;6.61;68.38
72428;BME280;60419;48.880;18.036;2023-12-28T01:50:39;99577.75;;;6.78;68.12
72428;BME280;60419;48.880;18.036;2023-12-28T01:53:24;99580.63;;;6.36;69.70
72428;BME280;60419;48.880;18.036;2023-12-28T01:56:10;99570.19;;;6.55;69.47
72428;BME280;60419;48.880;18.036;2023-12-28T01:58:56;99564.84;;;6.75;69.29
72428;BME280;60419;48.880;18.036;2023-12-28T02:01:41;99554.34;;;6.58;68.76
72428;BME280;60419;48.880;18.036;2023-12-28T02:04:27;99564.84;;;6.70;68.74
72428;BME280;60419;48.880;18.036;2023-12-28T02:07:14;99560.53;;;6.59;69.69
72428;BME280;60419;48.880;18.036;2023-12-28T02:10:00;99551.41;;;6.65;69.60
72428;BME280;60419;48.880;18.036;2023-12-28T02:12:45;99544.94;;;6.56;69.48
72428;BME280;60419;48.880;18.036;2023-12-28T02:15:31;99540.16;;;6.83;69.22
72428;BME280;60419;48.880;18.036;2023-12-28T02:18:20;99535.06;;;6.61;69.31
72428;BME280;60419;48.880;18.036;2023-12-28T02:21:06;99517.25;;;6.30;69.77
72428;BME280;60419;48.880;18.036;2023-12-28T02:23:53;99529.69;;;6.66;69.87
72428;BME280;60419;48.880;18.036;2023-12-28T02:26:38;99536.91;;;6.66;69.21
72428;BME280;60419;48.880;18.036;2023-12-28T02:29:24;99539.34;;;6.62;69.46
72428;BME280;60419;48.880;18.036;2023-12-28T02:32:09;99517.56;;;6.43;69.45
72428;BME280;60419;48.880;18.036;2023-12-28T02:35:01;99531.78;;;6.34;70.30
72428;BME280;60419;48.880;18.036;2023-12-28T02:37:51;99528.03;;;6.55;70.56
72428;BME280;60419;48.880;18.036;2023-12-28T02:40:42;99507.28;;;5.99;71.24
72428;BME280;60419;48.880;18.036;2023-12-28T02:43:29;99488.59;;;6.35;70.02
72428;BME280;60419;48.880;18.036;2023-12-28T02:46:14;99520.53;;;6.52;70.45
72428;BME280;60419;48.880;18.036;2023-12-28T02:49:00;99515.44;;;6.61;68.96
72428;BME280;60419;48.880;18.036;2023-12-28T02:51:45;99516.25;;;6.51;70.21
72428;BME280;60419;48.880;18.036;2023-12-28T02:54:31;99510.59;;;6.63;69.49
72428;BME280;60419;48.880;18.036;2023-12-28T02:57:16;99511.94;;;6.76;69.09
72428;BME280;60419;48.880;18.036;2023-12-28T03:00:07;99502.53;;;6.53;69.14
72428;BME280;60419;48.880;18.036;2023-12-28T03:02:55;99496.38;;;6.62;69.50
72428;BME280;60419;48.880;18.036;2023-12-28T03:05:42;99494.78;;;6.66;69.32
72428;BME280;60419;48.880;18.036;2023-12-28T03:08:27;99510.06;;;6.56;70.30
72428;BME280;60419;48.880;18.036;2023-12-28T03:11:12;99508.44;;;6.50;70.60
72428;BME280;60419;48.880;18.036;2023-12-28T03:13:58;99509.00;;;6.47;70.05
72428;BME280;60419;48.880;18.036;2023-12-28T03:16:43;99515.97;;;6.68;69.53
72428;BME280;60419;48.880;18.036;2023-12-28T03:19:28;99517.31;;;6.60;69.33
72428;BME280;60419;48.880;18.036;2023-12-28T03:22:14;99520.28;;;6.74;69.22
72428;BME280;60419;48.880;18.036;2023-12-28T03:25:00;99534.78;;;6.88;67.82
72428;BME280;60419;48.880;18.036;2023-12-28T03:27:46;99529.16;;;6.64;69.01
72428;BME280;60419;48.880;18.036;2023-12-28T03:30:31;99531.78;;;6.44;69.95
72428;BME280;60419;48.880;18.036;2023-12-28T03:33:16;99527.25;;;6.60;69.50
72428;BME280;60419;48.880;18.036;2023-12-28T03:36:02;99519.94;;;6.14;71.46
72428;BME280;60419;48.880;18.036;2023-12-28T03:38:47;99523.47;;;5.62;72.48
72428;BME280;60419;48.880;18.036;2023-12-28T03:41:33;99521.72;;;5.83;73.06
72428;BME280;60419;48.880;18.036;2023-12-28T03:44:21;99512.72;;;5.52;71.99
72428;BME280;60419;48.880;18.036;2023-12-28T03:47:07;99521.00;;;5.50;71.14
72428;BME280;60419;48.880;18.036;2023-12-28T03:49:52;99523.06;;;5.33;70.84
72428;BME280;60419;48.880;18.036;2023-12-28T03:52:38;99531.06;;;5.75;69.35
72428;BME280;60419;48.880;18.036;2023-12-28T03:55:23;99512.94;;;6.08;67.67
72428;BME280;60419;48.880;18.036;2023-12-28T03:58:08;99515.28;;;5.89;68.43
72428;BME280;60419;48.880;18.036;2023-12-28T04:00:54;99514.03;;;6.17;67.58
72428;BME280;60419;48.880;18.036;2023-12-28T04:03:39;99519.56;;;5.85;69.23
72428;BME280;60419;48.880;18.036;2023-12-28T04:06:24;99526.56;;;5.33;72.27
72428;BME280;60419;48.880;18.036;2023-12-28T04:09:13;99522.53;;;5.36;72.43
72428;BME280;60419;48.880;18.036;2023-12-28T04:11:58;99527.47;;;5.12;73.20
72428;BME280;60419;48.880;18.036;2023-12-28T04:14:43;99520.13;;;5.34;73.62
72428;BME280;60419;48.880;18.036;2023-12-28T04:17:29;99521.13;;;5.71;71.28
72428;BME280;60419;48.880;18.036;2023-12-28T04:20:14;99522.25;;;5.90;70.12
72428;BME280;60419;48.880;18.036;2023-12-28T04:23:00;99524.97;;;5.95;69.23
72428;BME280;60419;48.880;18.036;2023-12-28T04:25:45;99533.25;;;5.84;69.66
72428;BME280;60419;48.880;18.036;2023-12-28T04:28:31;99522.13;;;5.54;71.48
72428;BME280;60419;48.880;18.036;2023-12-28T04:31:16;99526.53;;;5.81;71.10
72428;BME280;60419;48.880;18.036;2023-12-28T04:34:01;99523.53;;;5.72;73.22
72428;BME280;60419;48.880;18.036;2023-12-28T04:36:47;99532.28;;;6.26;71.52
72428;BME280;60419;48.880;18.036;2023-12-28T04:39:34;99519.44;;;6.38;70.59
72428;BME280;60419;48.880;18.036;2023-12-28T04:42:19;99539.59;;;6.66;69.59
72428;BME280;60419;48.880;18.036;2023-12-28T04:45:05;99536.91;;;6.66;69.06
72428;BME280;60419;48.880;18.036;2023-12-28T04:47:51;99533.16;;;6.67;69.36
72428;BME280;60419;48.880;18.036;2023-12-28T04:50:36;99539.59;;;6.40;70.71
72428;BME280;60419;48.880;18.036;2023-12-28T04:53:21;99512.50;;;6.57;69.23
72428;BME280;60419;48.880;18.036;2023-12-28T04:56:07;99533.44;;;6.81;68.20
72428;BME280;60419;48.880;18.036;2023-12-28T04:58:52;99543.38;;;7.06;67.10
72428;BME280;60419;48.880;18.036;2023-12-28T05:01:44;99540.69;;;7.21;66.38
72428;BME280;60419;48.880;18.036;2023-12-28T05:04:29;99549.28;;;6.87;66.59
72428;BME280;60419;48.880;18.036;2023-12-28T05:07:14;99552.78;;;6.73;67.24
72428;BME280;60419;48.880;18.036;2023-12-28T05:10:00;99556.22;;;6.48;68.43
72428;BME280;60419;48.880;18.036;2023-12-28T05:12:45;99558.00;;;6.16;69.63
72428;BME280;60419;48.880;18.036;2023-12-28T05:15:31;99570.69;;;6.41;68.80
72428;BME280;60419;48.880;18.036;2023-12-28T05:18:16;99570.69;;;6.36;68.75
72428;BME280;60419;48.880;18.036;2023-12-28T05:21:01;99570.44;;;6.33;69.13
72428;BME280;60419;48.880;18.036;2023-12-28T05:23:47;99569.94;;;6.56;69.06
72428;BME280;60419;48.880;18.036;2023-12-28T05:26:32;99562.69;;;6.62;67.38
72428;BME280;60419;48.880;18.036;2023-12-28T05:29:17;99565.66;;;5.82;70.20
72428;BME280;60419;48.880;18.036;2023-12-28T05:32:04;99536.09;;;5.67;71.29
72428;BME280;60419;48.880;18.036;2023-12-28T05:34:49;99575.78;;;6.33;69.18
72428;BME280;60419;48.880;18.036;2023-12-28T05:37:35;99564.25;;;6.37;68.20
72428;BME280;60419;48.880;18.036;2023-12-28T05:40:20;99557.84;;;5.70;69.55
72428;BME280;60419;48.880;18.036;2023-12-28T05:43:06;99564.34;;;5.37;70.37
72428;BME280;60419;48.880;18.036;2023-12-28T05:45:51;99565.09;;;5.32;70.89
72428;BME280;60419;48.880;18.036;2023-12-28T05:48:36;99568.69;;;5.48;69.52
72428;BME280;60419;48.880;18.036;2023-12-28T05:51:22;99558.81;;;5.54;70.88
72428;BME280;60419;48.880;18.036;2023-12-28T05:54:07;99565.44;;;5.41;71.04
72428;BME280;60419;48.880;18.036;2023-12-28T05:56:53;99556.22;;;5.69;69.70
72428;BME280;60419;48.880;18.036;2023-12-28T05:59:38;99557.88;;;5.75;68.62
72428;BME280;60419;48.880;18.036;2023-12-28T06:02:25;99553.84;;;5.73;68.96
72428;BME280;60419;48.880;18.036;2023-12-28T06:05:10;99574.50;;;5.83;68.24
72428;BME280;60419;48.880;18.036;2023-12-28T06:07:55;99580.66;;;5.35;69.40
72428;BME280;60419;48.880;18.036;2023-12-28T06:10:41;99570.00;;;5.46;68.75
72428;BME280;60419;48.880;18.036;2023-12-28T06:13:26;99561.56;;;5.22;68.32
72428;BME280;60419;48.880;18.036;2023-12-28T06:16:12;99571.03;;;4.97;71.18
72428;BME280;60419;48.880;18.036;2023-12-28T06:18:57;99578.59;;;5.05;70.46
72428;BME280;60419;48.880;18.036;2023-12-28T06:21:42;99581.78;;;5.02;69.93
72428;BME280;60419;48.880;18.036;2023-12-28T06:24:28;99566.19;;;4.99;70.05
72428;BME280;60419;48.880;18.036;2023-12-28T06:27:13;99570.47;;;4.95;70.15
72428;BME280;60419;48.880;18.036;2023-12-28T06:29:58;99569.97;;;4.44;71.54
72428;BME280;60419;48.880;18.036;2023-12-28T06:32:44;99572.88;;;4.69;71.00
72428;BME280;60419;48.880;18.036;2023-12-28T06:35:29;99569.59;;;4.89;71.60
72428;BME280;60419;48.880;18.036;2023-12-28T06:38:14;99562.56;;;5.10;70.44
72428;BME280;60419;48.880;18.036;2023-12-28T06:41:00;99577.69;;;4.95;69.99
72428;BME280;60419;48.880;18.036;2023-12-28T06:43:45;99567.56;;;5.02;70.30
72428;BME280;60419;48.880;18.036;2023-12-28T06:46:31;99571.19;;;4.09;72.99
72428;BME280;60419;48.880;18.036;2023-12-28T06:49:16;99567.03;;;4.45;71.98
72428;BME280;60419;48.880;18.036;2023-12-28T06:52:01;99581.75;;;4.75;70.52
72428;BME280;60419;48.880;18.036;2023-12-28T06:54:47;99584.34;;;4.65;71.44
72428;BME280;60419;48.880;18.036;2023-12-28T06:57:35;99584.03;;;4.88;70.78
72428;BME280;60419;48.880;18.036;2023-12-28T07:00:21;99580.00;;;4.10;73.00
72428;BME280;60419;48.880;18.036;2023-12-28T07:03:06;99593.09;;;4.06;73.13
72428;BME280;60419;48.880;18.036;2023-12-28T07:05:52;99581.84;;;4.31;72.69
72428;BME280;60419;48.880;18.036;2023-12-28T07:08:38;99591.88;;;4.41;72.73
72428;BME280;60419;48.880;18.036;2023-12-28T07:11:23;99576.66;;;4.46;72.78
72428;BME280;60419;48.880;18.036;2023-12-28T07:14:08;99602.41;;;4.03;73.93
72428;BME280;60419;48.880;18.036;2023-12-28T07:16:54;99599.84;;;4.14;74.31
72428;BME280;60419;48.880;18.036;2023-12-28T07:19:39;99602.31;;;4.20;73.70
72428;BME280;60419;48.880;18.036;2023-12-28T07:22:24;99595.38;;;4.19;73.72
72428;BME280;60419;48.880;18.036;2023-12-28T07:25:10;99595.09;;;4.43;73.29
72428;BME280;60419;48.880;18.036;2023-12-28T07:27:55;99603.06;;;4.65;72.22
72428;BME280;60419;48.880;18.036;2023-12-28T07:30:41;99598.94;;;4.52;72.23
72428;BME280;60419;48.880;18.036;2023-12-28T07:33:26;99604.09;;;4.59;72.67
72428;BME280;60419;48.880;18.036;2023-12-28T07:36:12;99594.28;;;4.69;71.65
72428;BME280;60419;48.880;18.036;2023-12-28T07:38:57;99607.16;;;4.23;72.62
72428;BME280;60419;48.880;18.036;2023-12-28T07:41:42;99607.69;;;3.43;75.72
72428;BME280;60419;48.880;18.036;2023-12-28T07:44:28;99566.66;;;3.88;74.24
72428;BME280;60419;48.880;18.036;2023-12-28T07:47:13;99609.53;;;4.42;72.82
72428;BME280;60419;48.880;18.036;2023-12-28T07:49:59;99610.75;;;4.83;71.67
72428;BME280;60419;48.880;18.036;2023-12-28T07:52:46;99604.63;;;4.88;71.29
72428;BME280;60419;48.880;18.036;2023-12-28T07:55:34;99598.75;;;4.59;71.69
72428;BME280;60419;48.880;18.036;2023-12-28T07:58:19;99608.59;;;4.53;72.50
72428;BME280;60419;48.880;18.036;2023-12-28T08:01:10;99612.06;;;4.54;73.04
72428;BME280;60419;48.880;18.036;2023-12-28T08:03:56;99607.63;;;5.19;71.30
72428;BME280;60419;48.880;18.036;2023-12-28T08:06:41;99613.72;;;5.14;70.57
72428;BME280;60419;48.880;18.036;2023-12-28T08:09:26;99597.47;;;5.21;70.61
72428;BME280;60419;48.880;18.036;2023-12-28T08:12:12;99610.81;;;5.53;69.55
72428;BME280;60419;48.880;18.036;2023-12-28T08:14:59;99618.91;;;5.63;68.35
72428;BME280;60419;48.880;18.036;2023-12-28T08:17:44;99613.81;;;5.67;68.69
72428;BME280;60419;48.880;18.036;2023-12-28T08:20:30;99601.56;;;5.76;68.02
72428;BME280;60419;48.880;18.036;2023-12-28T08:23:15;99608.59;;;5.87;68.74
72428;BME280;60419;48.880;18.036;2023-12-28T08:26:01;99617.72;;;5.91;68.92
72428;BME280;60419;48.880;18.036;2023-12-28T08:28:46;99625.91;;;6.27;68.66
72428;BME280;60419;48.880;18.036;2023-12-28T08:31:31;99620.91;;;6.46;67.31
72428;BME280;60419;48.880;18.036;2023-12-28T08:34:17;99607.75;;;6.44;67.76
72428;BME280;60419;48.880;18.036;2023-12-28T08:37:03;99621.88;;;6.24;70.07
72428;BME280;60419;48.880;18.036;2023-12-28T08:39:48;99620.53;;;6.22;69.48
72428;BME280;60419;48.880;18.036;2023-12-28T08:42:33;99626.41;;;6.14;70.17
72428;BME280;60419;48.880;18.036;2023-12-28T08:45:19;99634.69;;;6.07;70.58
72428;BME280;60419;48.880;18.036;2023-12-28T08:48:05;99622.34;;;6.06;70.79
72428;BME280;60419;48.880;18.036;2023-12-28T08:50:50;99621.28;;;6.02;71.31
72428;BME280;60419;48.880;18.036;2023-12-28T08:53:36;99620.75;;;6.10;72.74
72428;BME280;60419;48.880;18.036;2023-12-28T08:56:22;99632.31;;;6.16;71.95
72428;BME280;60419;48.880;18.036;2023-12-28T08:59:08;99633.00;;;5.86;79.49
72428;BME280;60419;48.880;18.036;2023-12-28T09:01:54;99633.97;;;5.74;75.14
72428;BME280;60419;48.880;18.036;2023-12-28T09:04:39;99623.09;;;5.91;74.52
72428;BME280;60419;48.880;18.036;2023-12-28T09:07:25;99621.34;;;6.17;73.31
72428;BME280;60419;48.880;18.036;2023-12-28T09:10:12;99614.50;;;5.89;73.38
72428;BME280;60419;48.880;18.036;2023-12-28T09:12:57;99608.19;;;6.16;73.16
72428;BME280;60419;48.880;18.036;2023-12-28T09:15:43;99607.44;;;6.36;74.04
72428;BME280;60419;48.880;18.036;2023-12-28T09:18:28;99605.63;;;6.57;71.57
72428;BME280;60419;48.880;18.036;2023-12-28T09:21:14;99604.75;;;6.26;72.65
72428;BME280;60419;48.880;18.036;2023-12-28T09:23:59;99602.59;;;6.22;72.89
72428;BME280;60419;48.880;18.036;2023-12-28T09:26:45;99605.25;;;6.22;72.93
72428;BME280;60419;48.880;18.036;2023-12-28T09:29:30;99593.59;;;5.91;74.15
72428;BME280;60419;48.880;18.036;2023-12-28T09:32:16;99592.50;;;5.87;74.81
72428;BME280;60419;48.880;18.036;2023-12-28T09:35:02;99592.38;;;6.14;73.61
72428;BME280;60419;48.880;18.036;2023-12-28T09:37:47;99582.91;;;6.01;75.03
72428;BME280;60419;48.880;18.036;2023-12-28T09:40:35;99586.97;;;6.09;74.66
72428;BME280;60419;48.880;18.036;2023-12-28T09:43:23;99585.16;;;6.25;73.66
72428;BME280;60419;48.880;18.036;2023-12-28T09:46:11;99587.81;;;6.20;74.00
72428;BME280;60419;48.880;18.036;2023-12-28T09:48:58;99583.03;;;6.37;73.33
72428;BME280;60419;48.880;18.036;2023-12-28T09:51:46;99576.81;;;7.95;87.05
72428;BME280;60419;48.880;18.036;2023-12-28T09:54:31;99575.22;;;7.94;73.66
72428;BME280;60419;48.880;18.036;2023-12-28T09:57:17;99568.84;;;7.60;70.39
72428;BME280;60419;48.880;18.036;2023-12-28T10:00:04;99564.88;;;6.85;71.25
72428;BME280;60419;48.880;18.036;2023-12-28T10:02:51;99567.25;;;6.56;72.45
72428;BME280;60419;48.880;18.036;2023-12-28T10:05:37;99561.88;;;6.77;72.45
72428;BME280;60419;48.880;18.036;2023-12-28T10:08:22;99555.44;;;6.62;72.46
72428;BME280;60419;48.880;18.036;2023-12-28T10:11:08;99548.97;;;6.58;72.41
72428;BME280;60419;48.880;18.036;2023-12-28T10:13:53;99562.63;;;6.36;74.56
72428;BME280;60419;48.880;18.036;2023-12-28T10:16:41;99557.03;;;6.63;72.97
72428;BME280;60419;48.880;18.036;2023-12-28T10:19:27;99480.28;;;6.52;72.92
72428;BME280;60419;48.880;18.036;2023-12-28T10:22:13;99562.19;;;6.91;72.12
72428;BME280;60419;48.880;18.036;2023-12-28T10:24:59;99528.31;;;6.49;73.22
72428;BME280;60419;48.880;18.036;2023-12-28T10:27:45;99549.28;;;6.72;72.80
72428;BME280;60419;48.880;18.036;2023-12-28T10:30:30;99548.22;;;6.88;72.07
72428;BME280;60419;48.880;18.036;2023-12-28T10:33:16;99547.13;;;6.84;71.48
72428;BME280;60419;48.880;18.036;2023-12-28T10:36:08;99553.59;;;6.83;72.18
72428;BME280;60419;48.880;18.036;2023-12-28T10:38:54;99554.38;;;6.84;72.22
72428;BME280;60419;48.880;18.036;2023-12-28T10:41:41;99545.28;;;6.85;72.15
72428;BME280;60419;48.880;18.036;2023-12-28T10:44:27;99531.00;;;6.79;71.90
72428;BME280;60419;48.880;18.036;2023-12-28T10:47:16;99529.97;;;6.85;72.05
72428;BME280;60419;48.880;18.036;2023-12-28T10:50:04;99516.25;;;6.77;71.68
72428;BME280;60419;48.880;18.036;2023-12-28T10:52:53;99499.88;;;6.94;71.68
72428;BME280;60419;48.880;18.036;2023-12-28T10:55:56;99466.53;;;7.00;70.50
72428;BME280;60419;48.880;18.036;2023-12-28T10:59:14;99507.09;;;7.24;70.84
72428;BME280;60419;48.880;18.036;2023-12-28T11:02:02;99514.34;;;7.18;70.53
72428;BME280;60419;48.880;18.036;2023-12-28T11:04:49;99508.72;;;6.94;71.01
72428;BME280;60419;48.880;18.036;2023-12-28T11:07:35;99506.81;;;7.15;69.81
72428;BME280;60419;48.880;18.036;2023-12-28T11:10:24;99497.41;;;7.18;70.62
72428;BME280;60419;48.880;18.036;2023-12-28T11:13:09;99501.97;;;7.32;69.56
72428;BME280;60419;48.880;18.036;2023-12-28T11:15:56;99474.31;;;7.17;70.13
72428;BME280;60419;48.880;18.036;2023-12-28T11:18:41;99479.16;;;7.09;71.25
72428;BME280;60419;48.880;18.036;2023-12-28T11:21:28;99473.56;;;6.96;71.57
72428;BME280;60419;48.880;18.036;2023-12-28T11:24:13;99464.09;;;7.24;71.13
72428;BME280;60419;48.880;18.036;2023-12-28T11:26:59;99445.56;;;7.17;71.19
72428;BME280;60419;48.880;18.036;2023-12-28T11:29:47;99447.63;;;7.51;69.25
72428;BME280;60419;48.880;18.036;2023-12-28T11:32:33;99447.31;;;7.63;69.44
72428;BME280;60419;48.880;18.036;2023-12-28T11:35:20;99455.19;;;7.28;70.95
72428;BME280;60419;48.880;18.036;2023-12-28T11:38:08;99459.50;;;7.35;70.13
72428;BME280;60419;48.880;18.036;2023-12-28T11:40:54;99447.84;;;7.60;69.82
72428;BME280;60419;48.880;18.036;2023-12-28T11:43:42;99454.78;;;7.76;69.16
72428;BME280;60419;48.880;18.036;2023-12-28T11:46:29;99453.28;;;7.34;70.46
72428;BME280;60419;48.880;18.036;2023-12-28T11:49:14;99458.66;;;7.34;70.80
72428;BME280;60419;48.880;18.036;2023-12-28T11:51:59;99451.19;;;7.21;70.27
72428;BME280;60419;48.880;18.036;2023-12-28T11:54:48;99459.09;;;7.72;68.93
72428;BME280;60419;48.880;18.036;2023-12-28T11:57:36;99444.44;;;7.44;69.50
72428;BME280;60419;48.880;18.036;2023-12-28T12:00:23;99441.94;;;7.63;69.15
72428;BME280;60419;48.880;18.036;2023-12-28T12:03:13;99435.44;;;7.74;69.02
72428;BME280;60419;48.880;18.036;2023-12-28T12:05:59;99432.53;;;7.60;69.43
72428;BME280;60419;48.880;18.036;2023-12-28T12:08:48;99435.47;;;7.69;69.95
72428;BME280;60419;48.880;18.036;2023-12-28T12:11:35;99419.72;;;7.91;68.87
72428;BME280;60419;48.880;18.036;2023-12-28T12:14:23;99412.97;;;7.94;69.08
72428;BME280;60419;48.880;18.036;2023-12-28T12:17:08;99431.28;;;7.97;68.74
72428;BME280;60419;48.880;18.036;2023-12-28T12:19:55;99418.19;;;7.80;68.49
72428;BME280;60419;48.880;18.036;2023-12-28T12:22:42;99427.25;;;7.40;70.15
72428;BME280;60419;48.880;18.036;2023-12-28T12:25:28;99426.41;;;7.34;71.01
72428;BME280;60419;48.880;18.036;2023-12-28T12:28:14;99427.06;;;7.75;69.84
72428;BME280;60419;48.880;18.036;2023-12-28T12:31:00;99429.00;;;7.70;69.60
72428;BME280;60419;48.880;18.036;2023-12-28T12:33:49;99431.81;;;7.94;69.45
72428;BME280;60419;48.880;18.036;2023-12-28T12:36:35;99424.00;;;7.97;69.03
72428;BME280;60419;48.880;18.036;2023-12-28T12:39:24;99418.31;;;7.49;70.17
72428;BME280;60419;48.880;18.036;2023-12-28T12:42:13;99426.03;;;7.71;70.06
72428;BME280;60419;48.880;18.036;2023-12-28T12:44:59;99419.44;;;7.98;68.87
72428;BME280;60419;48.880;18.036;2023-12-28T12:47:46;99417.63;;;7.83;69.31
72428;BME280;60419;48.880;18.036;2023-12-28T12:50:32;99409.19;;;8.00;68.69
72428;BME280;60419;48.880;18.036;2023-12-28T12:53:17;99403.69;;;7.81;69.85
72428;BME280;60419;48.880;18.036;2023-12-28T12:56:03;99398.38;;;7.66;70.20
72428;BME280;60419;48.880;18.036;2023-12-28T12:58:50;99413.69;;;7.65;70.66
72428;BME280;60419;48.880;18.036;2023-12-28T13:01:35;99396.66;;;7.80;69.91
72428;BME280;60419;48.880;18.036;2023-12-28T13:04:20;99378.41;;;8.16;68.59
72428;BME280;60419;48.880;18.036;2023-12-28T13:07:06;99379.53;;;9.65;79.19
72428;BME280;60419;48.880;18.036;2023-12-28T13:09:52;99375.72;;;8.46;67.37
72428;BME280;60419;48.880;18.036;2023-12-28T13:12:37;99386.97;;;8.82;66.68
72428;BME280;60419;48.880;18.036;2023-12-28T13:15:22;99385.94;;;8.78;66.15
72428;BME280;60419;48.880;18.036;2023-12-28T13:18:08;99385.44;;;8.47;67.40
72428;BME280;60419;48.880;18.036;2023-12-28T13:20:54;99382.00;;;8.02;68.38
72428;BME280;60419;48.880;18.036;2023-12-28T13:23:39;99385.72;;;8.11;68.45
72428;BME280;60419;48.880;18.036;2023-12-28T13:26:24;99394.44;;;7.92;69.05
72428;BME280;60419;48.880;18.036;2023-12-28T13:29:10;99386.50;;;7.72;69.69
72428;BME280;60419;48.880;18.036;2023-12-28T13:31:55;99385.91;;;7.80;69.68
72428;BME280;60419;48.880;18.036;2023-12-28T13:34:40;99386.84;;;8.05;69.37
72428;BME280;60419;48.880;18.036;2023-12-28T13:37:26;99383.81;;;7.72;70.56
72428;BME280;60419;48.880;18.036;2023-12-28T13:40:11;99377.50;;;7.92;69.78
72428;BME280;60419;48.880;18.036;2023-12-28T13:42:57;99363.13;;;7.67;71.16
72428;BME280;60419;48.880;18.036;2023-12-28T13:45:42;99362.81;;;7.79;70.83
72428;BME280;60419;48.880;18.036;2023-12-28T13:48:28;99372.44;;;7.85;70.36
72428;BME280;60419;48.880;18.036;2023-12-28T13:51:13;99380.72;;;7.89;70.41
72428;BME280;60419;48.880;18.036;2023-12-28T13:53:58;99392.03;;;7.91;72.45
72428;BME280;60419;48.880;18.036;2023-12-28T13:56:44;99397.63;;;8.68;71.00
72428;BME280;60419;48.880;18.036;2023-12-28T13:59:30;99388.88;;;8.52;69.94
72428;BME280;60419;48.880;18.036;2023-12-28T14:02:15;99396.38;;;8.55;68.78
72428;BME280;60419;48.880;18.036;2023-12-28T14:05:00;99386.22;;;8.18;69.26
72428;BME280;60419;48.880;18.036;2023-12-28T14:07:46;99395.53;;;8.31;69.42
72428;BME280;60419;48.880;18.036;2023-12-28T14:10:31;99400.22;;;9.50;81.37
72428;BME280;60419;48.880;18.036;2023-12-28T14:13:16;99401.59;;;8.76;78.32
72428;BME280;60419;48.880;18.036;2023-12-28T14:16:03;99405.03;;;8.18;69.22
72428;BME280;60419;48.880;18.036;2023-12-28T14:18:48;99420.84;;;7.85;70.77
72428;BME280;60419;48.880;18.036;2023-12-28T14:21:36;99424.38;;;7.75;72.93
72428;BME280;60419;48.880;18.036;2023-12-28T14:24:22;99415.41;;;7.36;73.00
72428;BME280;60419;48.880;18.036;2023-12-28T14:27:08;99421.53;;;7.57;73.29
72428;BME280;60419;48.880;18.036;2023-12-28T14:29:53;99414.41;;;7.21;73.05
72428;BME280;60419;48.880;18.036;2023-12-28T14:32:39;99399.63;;;7.19;72.85
72428;BME280;60419;48.880;18.036;2023-12-28T14:35:25;99409.84;;;7.11;72.50
72428;BME280;60419;48.880;18.036;2023-12-28T14:38:10;99413.13;;;6.98;73.90